createdAt,value
2022-10-10T00:00:56.457Z,21.40
2022-10-10T00:03:25.452Z,21.40
2022-10-10T00:05:53.687Z,21.40
2022-10-10T00:08:21.848Z,21.40
2022-10-10T00:10:50.071Z,21.40
2022-10-10T00:13:19.728Z,21.40
2022-10-10T00:15:48.943Z,21.40
2022-10-10T00:18:17.656Z,21.40
2022-10-10T00:20:45.878Z,21.40
2022-10-10T00:23:14.067Z,21.40
2022-10-10T00:25:42.415Z,21.40
2022-10-10T00:28:10.604Z,21.40
2022-10-10T00:30:40.319Z,21.40
2022-10-10T00:33:08.857Z,21.40
2022-10-10T00:35:37.275Z,21.40
2022-10-10T00:38:05.663Z,21.40
2022-10-10T00:40:34.003Z,21.40
2022-10-10T00:43:02.395Z,21.40
2022-10-10T00:45:34.462Z,21.40
2022-10-10T00:48:08.027Z,21.40
2022-10-10T00:50:39.851Z,21.40
2022-10-10T00:53:11.114Z,21.40
2022-10-10T00:55:39.682Z,21.40
2022-10-10T00:58:10.083Z,21.30
2022-10-10T01:00:38.446Z,21.30
2022-10-10T01:03:08.079Z,21.30
2022-10-10T01:05:37.140Z,21.30
2022-10-10T01:08:07.635Z,21.30
2022-10-10T01:10:42.996Z,21.30
2022-10-10T01:13:21.184Z,21.30
2022-10-10T01:15:57.714Z,21.30
2022-10-10T01:18:34.935Z,21.30
2022-10-10T01:21:24.190Z,21.30
2022-10-10T01:24:22.074Z,21.30
2022-10-10T01:27:17.765Z,21.30
2022-10-10T01:29:52.655Z,21.30
2022-10-10T01:32:28.296Z,21.30
2022-10-10T01:35:04.793Z,21.30
2022-10-10T01:37:41.655Z,21.30
2022-10-10T01:40:16.919Z,21.30
2022-10-10T01:42:51.889Z,21.30
2022-10-10T01:45:22.766Z,21.30
2022-10-10T01:47:52.205Z,21.30
2022-10-10T01:50:23.767Z,21.30
2022-10-10T01:53:01.774Z,21.30
2022-10-10T01:55:52.707Z,21.30
2022-10-10T01:58:49.839Z,21.30
2022-10-10T02:01:27.323Z,21.30
2022-10-10T02:04:03.493Z,21.30
2022-10-10T02:06:37.579Z,21.30
2022-10-10T02:09:09.816Z,21.30
2022-10-10T02:11:40.523Z,21.30
2022-10-10T02:14:16.375Z,21.30
2022-10-10T02:16:48.026Z,21.30
2022-10-10T02:19:19.806Z,21.30
2022-10-10T02:21:49.627Z,21.30
2022-10-10T02:24:19.846Z,21.30
2022-10-10T02:26:53.438Z,21.30
2022-10-10T02:29:25.479Z,21.30
2022-10-10T02:32:03.514Z,21.30
2022-10-10T02:34:36.440Z,21.30
2022-10-10T02:37:07.280Z,21.30
2022-10-10T02:39:38.512Z,21.30
2022-10-10T02:42:08.824Z,21.30
2022-10-10T02:44:38.082Z,21.20
2022-10-10T02:47:07.646Z,21.20
2022-10-10T02:49:36.468Z,21.30
2022-10-10T02:52:05.439Z,21.30
2022-10-10T02:54:33.849Z,21.20
2022-10-10T02:57:01.987Z,21.30
2022-10-10T02:59:30.163Z,21.20
2022-10-10T03:01:58.416Z,21.20
2022-10-10T03:04:28.826Z,21.20
2022-10-10T03:06:57.668Z,21.20
2022-10-10T03:09:25.838Z,21.20
2022-10-10T03:11:53.974Z,21.20
2022-10-10T03:14:25.135Z,21.20
2022-10-10T03:16:53.317Z,21.20
2022-10-10T03:19:21.554Z,21.20
2022-10-10T03:21:51.183Z,21.20
2022-10-10T03:24:19.343Z,21.20
2022-10-10T03:26:47.532Z,21.20
2022-10-10T03:29:15.784Z,21.20
2022-10-10T03:31:43.984Z,21.20
2022-10-10T03:34:12.235Z,21.20
2022-10-10T03:36:40.394Z,21.20
2022-10-10T03:39:10.357Z,21.20
2022-10-10T03:41:38.533Z,21.20
2022-10-10T03:44:06.686Z,21.20
2022-10-10T03:46:34.843Z,21.20
2022-10-10T03:49:03.052Z,21.20
2022-10-10T03:51:31.186Z,21.20
2022-10-10T03:53:59.368Z,21.20
2022-10-10T03:56:29.024Z,21.20
2022-10-10T03:59:00.533Z,21.20
2022-10-10T04:01:30.062Z,21.20
2022-10-10T04:03:58.311Z,21.20
2022-10-10T04:06:27.569Z,21.20
2022-10-10T04:08:55.737Z,21.20
2022-10-10T04:11:23.957Z,21.20
2022-10-10T04:13:53.499Z,21.20
2022-10-10T04:16:21.669Z,21.20
2022-10-10T04:18:49.924Z,21.20
2022-10-10T04:21:18.427Z,21.20
2022-10-10T04:23:46.620Z,21.20
2022-10-10T04:26:14.795Z,21.20
2022-10-10T04:28:43.070Z,21.20
2022-10-10T04:31:12.763Z,21.20
2022-10-10T04:33:40.910Z,21.20
2022-10-10T04:36:09.319Z,21.20
2022-10-10T04:38:37.601Z,21.20
2022-10-10T04:41:06.098Z,21.20
2022-10-10T04:43:34.363Z,21.20
2022-10-10T04:46:02.646Z,21.20
2022-10-10T04:48:32.225Z,21.20
2022-10-10T04:51:00.925Z,21.20
2022-10-10T04:53:29.466Z,21.20
2022-10-10T04:55:58.890Z,21.20
2022-10-10T04:58:27.263Z,21.20
2022-10-10T05:00:56.528Z,21.20
2022-10-10T05:03:25.891Z,21.20
2022-10-10T05:05:55.653Z,21.20
2022-10-10T05:08:23.868Z,21.20
2022-10-10T05:10:53.689Z,21.20
2022-10-10T05:13:21.861Z,21.20
2022-10-10T05:15:52.308Z,21.20
2022-10-10T05:18:20.878Z,21.20
2022-10-10T05:20:49.024Z,21.20
2022-10-10T05:23:18.712Z,21.10
2022-10-10T05:25:50.078Z,21.10
2022-10-10T05:28:18.630Z,21.10
2022-10-10T05:30:46.831Z,21.20
2022-10-10T05:33:15.032Z,21.20
2022-10-10T05:35:43.253Z,21.10
2022-10-10T05:38:11.437Z,21.10
2022-10-10T05:40:42.107Z,21.10
2022-10-10T05:43:10.626Z,21.10
2022-10-10T05:45:38.975Z,21.10
2022-10-10T05:48:07.170Z,21.10
2022-10-10T05:50:38.522Z,21.10
2022-10-10T05:53:07.559Z,21.10
2022-10-10T05:55:36.674Z,21.10
2022-10-10T05:58:06.835Z,21.10
2022-10-10T06:00:36.572Z,21.10
2022-10-10T06:03:05.298Z,21.10
2022-10-10T06:05:33.856Z,21.10
2022-10-10T06:08:10.683Z,21.10
2022-10-10T06:10:42.104Z,21.10
2022-10-10T06:13:12.418Z,21.10
2022-10-10T06:15:40.814Z,21.10
2022-10-10T06:18:09.449Z,21.10
2022-10-10T06:20:37.639Z,21.10
2022-10-10T06:23:06.840Z,21.10
2022-10-10T06:25:41.512Z,21.10
2022-10-10T06:28:12.747Z,21.10
2022-10-10T06:30:42.317Z,21.20
2022-10-10T06:33:11.061Z,21.20
2022-10-10T06:35:43.939Z,21.20
2022-10-10T06:38:12.892Z,21.30
2022-10-10T06:40:41.799Z,21.30
2022-10-10T06:43:12.856Z,21.30
2022-10-10T06:45:43.002Z,21.30
2022-10-10T06:48:11.479Z,21.30
2022-10-10T06:50:39.712Z,21.40
2022-10-10T06:53:08.047Z,21.40
2022-10-10T06:55:36.300Z,21.40
2022-10-10T06:58:05.133Z,21.40
2022-10-10T07:00:34.688Z,21.40
2022-10-10T07:03:03.085Z,21.40
2022-10-10T07:05:31.679Z,21.40
2022-10-10T07:08:00.211Z,21.40
2022-10-10T07:10:28.503Z,21.50
2022-10-10T07:12:57.483Z,21.50
2022-10-10T07:15:26.008Z,21.40
2022-10-10T07:18:00.130Z,21.30
2022-10-10T07:20:28.753Z,21.20
2022-10-10T07:22:57.506Z,21.20
2022-10-10T07:25:26.226Z,21.10
2022-10-10T07:27:54.807Z,21.10
2022-10-10T07:30:23.076Z,21.10
2022-10-10T07:32:51.627Z,21.00
2022-10-10T07:35:21.745Z,20.90
2022-10-10T07:37:54.269Z,20.90
2022-10-10T07:40:22.704Z,20.90
2022-10-10T07:42:51.521Z,20.80
2022-10-10T07:45:20.290Z,20.80
2022-10-10T07:47:48.736Z,20.80
2022-10-10T07:50:17.341Z,20.80
2022-10-10T07:52:46.863Z,20.80
2022-10-10T07:55:15.251Z,20.80
2022-10-10T07:57:43.422Z,20.70
2022-10-10T08:00:12.734Z,20.70
2022-10-10T08:02:41.038Z,20.70
2022-10-10T08:05:09.850Z,20.70
2022-10-10T08:07:38.060Z,20.70
2022-10-10T08:10:09.969Z,20.80
2022-10-10T08:12:38.250Z,20.80
2022-10-10T08:15:08.085Z,20.90
2022-10-10T08:17:36.418Z,20.90
2022-10-10T08:20:04.897Z,20.90
2022-10-10T08:22:33.240Z,21.00
2022-10-10T08:25:01.439Z,21.00
2022-10-10T08:27:31.035Z,21.00
2022-10-10T08:29:59.225Z,21.00
2022-10-10T08:32:27.483Z,21.00
2022-10-10T08:34:55.602Z,21.00
2022-10-10T08:37:28.798Z,21.00
2022-10-10T08:39:59.833Z,21.00
2022-10-10T08:42:34.647Z,21.00
2022-10-10T08:45:05.084Z,21.00
2022-10-10T08:47:40.594Z,21.10
2022-10-10T08:50:17.589Z,21.10
2022-10-10T08:52:49.927Z,21.10
2022-10-10T08:55:22.912Z,21.10
2022-10-10T08:57:55.920Z,21.10
2022-10-10T09:00:26.981Z,21.10
2022-10-10T09:02:58.042Z,21.10
2022-10-10T09:05:50.439Z,21.10
2022-10-10T09:08:37.836Z,21.10
2022-10-10T09:11:14.681Z,21.10
2022-10-10T09:13:53.146Z,21.10
2022-10-10T09:16:30.396Z,21.10
2022-10-10T09:19:12.534Z,21.10
2022-10-10T09:21:45.528Z,21.10
2022-10-10T09:24:21.483Z,21.10
2022-10-10T09:26:58.609Z,21.10
2022-10-10T09:29:32.515Z,21.10
2022-10-10T09:32:06.301Z,21.10
2022-10-10T09:34:39.950Z,21.10
2022-10-10T09:37:24.203Z,21.10
2022-10-10T09:40:01.826Z,21.10
2022-10-10T09:42:36.467Z,21.20
2022-10-10T09:45:17.699Z,21.20
2022-10-10T09:47:46.141Z,21.20
2022-10-10T09:50:15.731Z,21.20
2022-10-10T09:52:45.223Z,21.20
2022-10-10T09:55:26.444Z,21.20
2022-10-10T09:57:57.736Z,21.20
2022-10-10T10:00:35.721Z,21.20
2022-10-10T10:03:13.757Z,21.20
2022-10-10T10:05:45.239Z,21.20
2022-10-10T10:08:35.660Z,21.20
2022-10-10T10:11:05.102Z,21.20
2022-10-10T10:13:35.630Z,21.20
2022-10-10T10:16:08.108Z,21.20
2022-10-10T10:18:42.229Z,21.20
2022-10-10T10:21:18.006Z,21.20
2022-10-10T10:23:53.067Z,21.20
2022-10-10T10:26:24.137Z,21.20
2022-10-10T10:28:53.650Z,21.20
2022-10-10T10:31:35.426Z,21.20
2022-10-10T10:34:34.532Z,21.20
2022-10-10T10:37:14.694Z,21.20
2022-10-10T10:39:53.278Z,21.20
2022-10-10T10:42:36.840Z,21.20
2022-10-10T10:45:16.251Z,21.20
2022-10-10T10:47:54.775Z,21.20
2022-10-10T10:50:40.774Z,21.30
2022-10-10T10:53:20.714Z,21.20
2022-10-10T10:55:56.806Z,21.30
2022-10-10T11:01:55.306Z,21.30
2022-10-10T11:05:24.437Z,21.30
2022-10-10T11:07:45.161Z,21.30
2022-10-10T11:10:21.722Z,21.30
2022-10-10T11:13:00.812Z,21.30
2022-10-10T11:16:01.413Z,21.30
2022-10-10T11:18:28.692Z,21.30
2022-10-10T11:21:04.087Z,21.30
2022-10-10T11:23:35.443Z,21.30
2022-10-10T11:26:07.335Z,21.30
2022-10-10T11:28:41.108Z,21.40
2022-10-10T11:31:16.186Z,21.30
2022-10-10T11:33:47.958Z,21.40
2022-10-10T11:36:19.897Z,21.40
2022-10-10T11:38:52.183Z,21.40
2022-10-10T11:41:26.724Z,21.40
2022-10-10T11:43:58.228Z,21.40
2022-10-10T11:46:31.119Z,21.40
2022-10-10T11:49:06.990Z,21.40
2022-10-10T11:51:46.187Z,21.40
2022-10-10T11:54:28.531Z,21.40
2022-10-10T11:57:02.544Z,21.40
2022-10-10T11:59:37.341Z,21.40
2022-10-10T12:02:21.417Z,21.40
2022-10-10T12:04:52.013Z,21.40
2022-10-10T12:07:26.704Z,21.40
2022-10-10T12:09:58.050Z,21.40
2022-10-10T12:12:29.930Z,21.50
2022-10-10T12:15:03.147Z,21.50
2022-10-10T12:17:37.103Z,21.40
2022-10-10T12:20:31.311Z,21.50
2022-10-10T12:23:20.343Z,21.50
2022-10-10T12:25:48.884Z,21.50
2022-10-10T12:28:29.412Z,21.50
2022-10-10T12:31:20.906Z,21.50
2022-10-10T12:34:17.688Z,21.50
2022-10-10T12:37:22.031Z,21.50
2022-10-10T12:40:21.952Z,21.50
2022-10-10T12:43:23.210Z,21.50
2022-10-10T12:46:26.378Z,21.50
2022-10-10T12:49:14.979Z,21.50
2022-10-10T12:51:44.724Z,21.50
2022-10-10T12:54:25.464Z,21.60
2022-10-10T12:57:10.871Z,21.60
2022-10-10T12:59:40.280Z,21.60
2022-10-10T13:02:16.359Z,21.60
2022-10-10T13:04:46.386Z,21.60
2022-10-10T13:07:18.346Z,21.60
2022-10-10T13:09:48.972Z,21.60
2022-10-10T13:12:26.591Z,21.60
2022-10-10T13:14:55.312Z,21.60
2022-10-10T13:17:26.582Z,21.60
2022-10-10T13:19:56.269Z,21.60
2022-10-10T13:22:25.456Z,21.70
2022-10-10T13:24:54.307Z,21.70
2022-10-10T13:27:26.390Z,21.70
2022-10-10T13:29:55.690Z,21.70
2022-10-10T13:32:28.362Z,21.70
2022-10-10T13:34:59.952Z,21.70
2022-10-10T13:37:29.141Z,21.70
2022-10-10T13:39:57.781Z,21.70
2022-10-10T13:42:34.083Z,21.70
2022-10-10T13:45:03.806Z,21.70
2022-10-10T13:47:51.962Z,21.70
2022-10-10T13:50:23.945Z,21.70
2022-10-10T13:52:52.258Z,21.70
2022-10-10T13:55:26.899Z,21.70
2022-10-10T13:58:01.437Z,21.70
2022-10-10T14:00:32.700Z,21.70
2022-10-10T14:03:01.119Z,21.70
2022-10-10T14:05:32.444Z,21.70
2022-10-10T14:08:00.954Z,21.70
2022-10-10T14:10:33.670Z,21.80
2022-10-10T14:13:03.306Z,21.80
2022-10-10T14:15:36.098Z,21.80
2022-10-10T14:18:14.356Z,21.70
2022-10-10T14:20:42.562Z,21.80
2022-10-10T14:23:10.819Z,21.80
2022-10-10T14:25:40.374Z,21.80
2022-10-10T14:28:17.065Z,21.80
2022-10-10T14:30:45.455Z,21.80
2022-10-10T14:33:14.955Z,21.80
2022-10-10T14:35:44.015Z,21.80
2022-10-10T14:38:13.888Z,21.80
2022-10-10T14:40:43.438Z,21.80
2022-10-10T14:43:13.624Z,21.80
2022-10-10T14:45:41.942Z,21.80
2022-10-10T14:48:11.539Z,21.80
2022-10-10T14:50:43.989Z,21.90
2022-10-10T14:53:12.737Z,21.90
2022-10-10T14:55:43.372Z,21.80
2022-10-10T14:58:16.811Z,21.80
2022-10-10T15:00:45.691Z,21.80
2022-10-10T15:03:14.614Z,21.90
2022-10-10T15:05:43.169Z,21.80
2022-10-10T15:08:14.958Z,21.90
2022-10-10T15:10:43.274Z,21.90
2022-10-10T15:13:12.566Z,21.90
2022-10-10T15:15:42.398Z,21.90
2022-10-10T15:18:32.113Z,21.90
2022-10-10T15:20:59.140Z,21.90
2022-10-10T15:23:28.016Z,21.90
2022-10-10T15:26:00.458Z,21.90
2022-10-10T15:28:28.720Z,21.90
2022-10-10T15:30:58.554Z,21.90
2022-10-10T15:33:26.851Z,21.90
2022-10-10T15:36:08.983Z,21.90
2022-10-10T15:38:37.741Z,22.00
2022-10-10T15:41:08.951Z,22.00
2022-10-10T15:43:46.859Z,22.00
2022-10-10T15:46:16.365Z,21.90
2022-10-10T15:48:44.490Z,22.00
2022-10-10T15:51:12.633Z,22.00
2022-10-10T15:53:40.958Z,21.90
2022-10-10T15:56:11.020Z,21.90
2022-10-10T15:58:40.126Z,21.90
2022-10-10T16:01:12.955Z,21.90
2022-10-10T16:03:42.951Z,21.90
2022-10-10T16:06:11.659Z,22.00
2022-10-10T16:08:40.472Z,22.00
2022-10-10T16:11:09.661Z,22.00
2022-10-10T16:13:39.300Z,22.00
2022-10-10T16:16:09.977Z,22.00
2022-10-10T16:18:40.467Z,21.90
2022-10-10T16:21:11.864Z,22.00
2022-10-10T16:23:40.581Z,21.90
2022-10-10T16:26:11.794Z,21.90
2022-10-10T16:28:40.058Z,21.90
2022-10-10T16:31:10.215Z,21.90
2022-10-10T16:33:39.964Z,21.90
2022-10-10T16:36:14.603Z,21.90
2022-10-10T16:38:42.864Z,21.90
2022-10-10T16:41:28.836Z,21.90
2022-10-10T16:43:57.503Z,21.90
2022-10-10T16:46:26.818Z,21.90
2022-10-10T16:48:57.410Z,21.90
2022-10-10T16:51:30.358Z,21.90
2022-10-10T16:54:01.753Z,21.90
2022-10-10T16:56:30.682Z,21.90
2022-10-10T16:59:00.065Z,21.90
2022-10-10T17:01:29.101Z,21.90
2022-10-10T17:03:59.986Z,21.90
2022-10-10T17:06:35.312Z,21.90
2022-10-10T17:09:05.708Z,21.90
2022-10-10T17:11:34.131Z,21.90
2022-10-10T17:14:02.418Z,21.90
2022-10-10T17:17:07.048Z,21.90
2022-10-10T17:19:19.766Z,21.90
2022-10-10T17:21:49.326Z,21.90
2022-10-10T17:24:17.969Z,21.90
2022-10-10T17:26:46.198Z,21.90
2022-10-10T17:29:14.638Z,21.90
2022-10-10T17:31:42.873Z,21.90
2022-10-10T17:34:11.073Z,21.90
2022-10-10T17:36:39.330Z,21.90
2022-10-10T17:39:08.857Z,21.90
2022-10-10T17:41:37.145Z,21.90
2022-10-10T17:44:05.803Z,21.90
2022-10-10T17:46:36.106Z,21.90
2022-10-10T17:49:06.507Z,21.90
2022-10-10T17:51:35.815Z,21.90
2022-10-10T17:54:05.904Z,21.90
2022-10-10T17:56:36.077Z,21.90
2022-10-10T17:59:06.602Z,21.90
2022-10-10T18:01:35.295Z,21.90
2022-10-10T18:04:03.903Z,21.90
2022-10-10T18:06:32.858Z,21.90
2022-10-10T18:09:01.800Z,21.90
2022-10-10T18:11:31.714Z,21.90
2022-10-10T18:14:01.455Z,21.90
2022-10-10T18:16:32.325Z,21.90
2022-10-10T18:19:00.948Z,21.90
2022-10-10T18:21:29.371Z,21.90
2022-10-10T18:23:57.819Z,21.90
2022-10-10T18:26:29.417Z,21.90
2022-10-10T18:28:58.127Z,21.90
2022-10-10T18:31:30.187Z,21.90
2022-10-10T18:33:58.727Z,21.90
2022-10-10T18:36:29.631Z,21.90
2022-10-10T18:38:59.624Z,21.90
2022-10-10T18:41:33.835Z,21.90
2022-10-10T18:44:02.952Z,21.90
2022-10-10T18:46:32.894Z,21.90
2022-10-10T18:49:02.531Z,21.90
2022-10-10T18:51:31.084Z,21.90
2022-10-10T18:54:03.181Z,21.90
2022-10-10T18:56:33.082Z,21.90
2022-10-10T18:59:03.610Z,21.90
2022-10-10T19:01:36.791Z,21.90
2022-10-10T19:04:06.175Z,21.90
2022-10-10T19:06:34.694Z,21.90
2022-10-10T19:09:03.843Z,21.90
2022-10-10T19:11:34.471Z,21.90
2022-10-10T19:14:04.396Z,21.90
2022-10-10T19:16:34.501Z,21.90
2022-10-10T19:19:03.943Z,21.90
2022-10-10T19:21:34.711Z,21.90
2022-10-10T19:24:04.839Z,21.90
2022-10-10T19:26:33.465Z,21.90
2022-10-10T19:29:06.429Z,21.90
2022-10-10T19:31:37.907Z,21.90
2022-10-10T19:34:06.125Z,21.90
2022-10-10T19:36:37.283Z,21.90
2022-10-10T19:39:08.587Z,21.90
2022-10-10T19:41:36.821Z,21.90
2022-10-10T19:44:05.725Z,21.90
2022-10-10T19:46:37.495Z,21.90
2022-10-10T19:49:06.335Z,21.90
2022-10-10T19:51:34.556Z,21.90
2022-10-10T19:54:02.905Z,21.90
2022-10-10T19:56:31.398Z,21.90
2022-10-10T19:59:04.155Z,21.80
2022-10-10T20:01:32.650Z,21.90
2022-10-10T20:04:02.264Z,21.90
2022-10-10T20:06:30.485Z,21.90
2022-10-10T20:08:58.728Z,21.90
2022-10-10T20:11:27.296Z,21.80
2022-10-10T20:13:55.866Z,21.90
2022-10-10T20:16:25.401Z,21.80
2022-10-10T20:18:54.357Z,21.80
2022-10-10T20:21:29.108Z,21.80
2022-10-10T20:23:58.414Z,21.90
2022-10-10T20:26:27.033Z,21.80
2022-10-10T20:28:56.044Z,21.80
2022-10-10T20:31:25.887Z,21.90
2022-10-10T20:33:56.247Z,21.80
2022-10-10T20:36:28.901Z,21.90
2022-10-10T20:38:58.843Z,21.80
2022-10-10T20:41:30.382Z,21.80
2022-10-10T20:44:00.170Z,21.80
2022-10-10T20:46:30.727Z,21.80
2022-10-10T20:49:00.779Z,21.80
2022-10-10T20:51:30.455Z,21.80
2022-10-10T20:53:59.998Z,21.90
2022-10-10T20:56:29.683Z,21.80
2022-10-10T20:58:58.330Z,21.80
2022-10-10T21:01:28.219Z,21.90
2022-10-10T21:03:57.175Z,21.90
2022-10-10T21:06:28.651Z,21.80
2022-10-10T21:09:00.984Z,21.80
2022-10-10T21:11:29.282Z,21.80
2022-10-10T21:13:59.114Z,21.80
2022-10-10T21:16:29.820Z,21.80
2022-10-10T21:18:58.751Z,21.80
2022-10-10T21:21:28.312Z,21.80
2022-10-10T21:23:58.179Z,21.80
2022-10-10T21:26:27.838Z,21.80
2022-10-10T21:28:57.274Z,21.80
2022-10-10T21:31:27.136Z,21.80
2022-10-10T21:33:55.671Z,21.80
2022-10-10T21:36:26.612Z,21.80
2022-10-10T21:38:55.854Z,21.80
2022-10-10T21:41:25.983Z,21.80
2022-10-10T21:43:55.804Z,21.80
2022-10-10T21:46:29.086Z,21.80
2022-10-10T21:48:59.764Z,21.80
2022-10-10T21:51:28.091Z,21.80
2022-10-10T21:53:57.711Z,21.80
2022-10-10T21:56:27.476Z,21.80
2022-10-10T21:59:00.892Z,21.80
2022-10-10T22:01:32.730Z,21.80
2022-10-10T22:04:02.300Z,21.80
2022-10-10T22:06:30.700Z,21.80
2022-10-10T22:09:00.657Z,21.80
2022-10-10T22:11:32.074Z,21.80
2022-10-10T22:14:02.258Z,21.80
2022-10-10T22:16:30.959Z,21.80
2022-10-10T22:18:59.561Z,21.80
2022-10-10T22:21:31.562Z,21.80
2022-10-10T22:24:01.491Z,21.80
2022-10-10T22:26:31.879Z,21.80
2022-10-10T22:29:00.547Z,21.80
2022-10-10T22:31:29.337Z,21.80
2022-10-10T22:33:58.492Z,21.80
2022-10-10T22:36:26.929Z,21.80
2022-10-10T22:38:55.095Z,21.80
2022-10-10T22:41:23.622Z,21.80
2022-10-10T22:43:53.200Z,21.80
2022-10-10T22:46:21.418Z,21.80
2022-10-10T22:48:49.578Z,21.80
2022-10-10T22:51:19.613Z,21.80
2022-10-10T22:53:48.857Z,21.80
2022-10-10T22:56:20.280Z,21.80
2022-10-10T22:58:48.937Z,21.80
2022-10-10T23:01:20.040Z,21.80
2022-10-10T23:03:48.267Z,21.80
2022-10-10T23:06:17.011Z,21.80
2022-10-10T23:08:45.229Z,21.80
2022-10-10T23:11:13.406Z,21.80
2022-10-10T23:13:41.692Z,21.80
2022-10-10T23:16:10.925Z,21.80
2022-10-10T23:18:40.483Z,21.80
2022-10-10T23:21:08.729Z,21.80
2022-10-10T23:23:37.015Z,21.80
2022-10-10T23:26:08.962Z,21.80
2022-10-10T23:28:39.271Z,21.80
2022-10-10T23:31:09.867Z,21.80
2022-10-10T23:33:38.391Z,21.80
2022-10-10T23:36:11.654Z,21.80
2022-10-10T23:38:40.565Z,21.80
2022-10-10T23:41:09.855Z,21.80
2022-10-10T23:43:38.116Z,21.80
2022-10-10T23:46:06.979Z,21.80
2022-10-10T23:48:35.584Z,21.80
2022-10-10T23:51:03.951Z,21.80
2022-10-10T23:53:33.844Z,21.80
2022-10-10T23:56:02.379Z,21.80
2022-10-10T23:58:30.858Z,21.80
